Time;durP1;ratioP1;P1;durP2;ratioP2;P2;SDS_P1;SDS_P2;PMS_P1;PMS_P2;Temp;Humidity;BMP_temperature;BMP_pressure;BME280_temperature;BME280_humidity;BME280_pressure;Samples;Min_cycle;Max_cycle;Signal;HPM_P1;HPM_P2
2022/10/07 00:02:05;;;;;;;17.15;3.88;;;;;;;10.39;nan;102519.06;5112634;28;20035;-51
2022/10/07 00:04:31;;;;;;;16.70;3.17;;;;;;;10.41;nan;102523.44;5112568;28;20039;-49
2022/10/07 00:06:56;;;;;;;9.85;2.70;;;;;;;10.39;nan;102514.66;5112615;28;20063;-50
2022/10/07 00:09:21;;;;;;;11.80;3.72;;;;;;;10.07;nan;102469.16;5094236;28;20367;-51
2022/10/07 00:11:47;;;;;;;14.75;3.40;;;;;;;10.03;nan;102470.06;5112401;28;20398;-55
2022/10/07 00:14:12;;;;;;;22.88;3.85;;;;;;;10.23;nan;102514.75;5112426;28;20546;-56
2022/10/07 00:16:39;;;;;;;17.02;2.92;;;;;;;10.19;nan;102521.75;5093956;28;20031;-50
2022/10/07 00:19:10;;;;;;;18.50;2.70;;;;;;;10.09;nan;102525.28;5094181;28;20070;-50
2022/10/07 00:21:36;;;;;;;12.37;3.27;;;;;;;10.01;nan;102511.31;5093978;28;20482;-48
2022/10/07 00:24:02;;;;;;;12.95;3.83;;;;;;;9.92;nan;102508.69;5112164;28;20497;-49
2022/10/07 00:26:30;;;;;;;14.70;2.97;;;;;;;9.92;nan;102516.59;5112524;28;20038;-52
2022/10/07 00:28:56;;;;;;;13.55;4.07;;;;;;;9.65;nan;102466.69;5112571;28;20110;-48
2022/10/07 00:31:24;;;;;;;20.05;3.63;;;;;;;9.75;nan;102476.31;5094459;28;20115;-51
2022/10/07 00:33:49;;;;;;;16.33;3.40;;;;;;;9.61;nan;102466.69;5112494;28;20073;-52
2022/10/07 00:36:22;;;;;;;11.95;2.72;;;;;;;9.85;nan;102499.06;5112451;28;20471;-50
2022/10/07 00:39:13;;;;;;;15.73;2.72;;;;;;;9.84;nan;102498.19;5094575;28;20048;-52
2022/10/07 00:41:40;;;;;;;17.25;3.63;;;;;;;9.82;nan;102491.19;5108364;28;20086;-53
2022/10/07 00:44:30;;;;;;;15.10;3.13;;;;;;;9.82;nan;102489.44;5112628;28;20036;-54
2022/10/07 00:47:02;;;;;;;18.77;3.67;;;;;;;9.51;nan;102466.75;5112292;28;20122;-49
2022/10/07 00:49:28;;;;;;;15.80;3.63;;;;;;;9.72;nan;102473.69;5093617;28;20379;-48
2022/10/07 00:51:53;;;;;;;19.83;4.18;;;;;;;9.72;nan;102479.81;5112149;28;20127;-51
2022/10/07 00:54:19;;;;;;;14.90;3.47;;;;;;;9.75;nan;102479.81;5112274;28;20123;-52
2022/10/07 00:56:46;;;;;;;20.52;4.40;;;;;;;9.74;nan;102490.34;5112196;28;20027;-46
2022/10/07 00:59:13;;;;;;;20.80;3.83;;;;;;;9.68;nan;102485.09;5095051;28;20031;-48
2022/10/07 01:01:40;;;;;;;17.65;3.53;;;;;;;9.68;nan;102490.34;5080666;28;20078;-50
2022/10/07 01:04:08;;;;;;;17.00;3.13;;;;;;;9.68;nan;102478.09;5116157;28;20391;-48
2022/10/07 01:06:38;;;;;;;13.82;3.30;;;;;;;9.65;nan;102469.31;5115737;28;20247;-48
2022/10/07 01:09:04;;;;;;;15.45;3.63;;;;;;;9.65;nan;102470.19;5115988;28;20093;-48
2022/10/07 01:11:44;;;;;;;19.25;3.83;;;;;;;9.10;nan;102371.34;5097397;28;20047;-51
2022/10/07 01:14:20;;;;;;;14.57;3.20;;;;;;;9.57;nan;102467.56;5115850;28;20103;-53
2022/10/07 01:16:53;;;;;;;15.13;2.80;;;;;;;9.49;nan;102460.59;5097614;28;20046;-53
2022/10/07 01:19:30;;;;;;;16.05;3.35;;;;;;;9.49;nan;102456.22;5097557;28;20031;-48
2022/10/07 01:22:18;;;;;;;18.42;3.30;;;;;;;9.48;nan;102451.84;5115948;28;20034;-51
2022/10/07 01:25:02;;;;;;;16.95;3.60;;;;;;;9.49;nan;102447.44;5115720;28;20038;-47
2022/10/07 01:27:28;;;;;;;15.68;2.80;;;;;;;9.43;nan;102437.81;5115611;28;20038;-50
2022/10/07 01:30:02;;;;;;;20.52;3.75;;;;;;;9.18;nan;102375.72;5080610;28;20474;-52
2022/10/07 01:32:31;;;;;;;20.83;3.47;;;;;;;9.51;nan;102427.31;5097444;28;20497;-54
2022/10/07 01:34:57;;;;;;;20.45;3.05;;;;;;;9.50;nan;102421.16;5115766;28;20052;-53
2022/10/07 01:37:23;;;;;;;21.02;3.72;;;;;;;9.49;nan;102415.91;5097264;28;20164;-49
2022/10/07 01:39:52;;;;;;;22.50;3.95;;;;;;;9.51;nan;102420.31;5097058;28;20044;-49
2022/10/07 01:42:18;;;;;;;26.42;4.05;;;;;;;9.54;nan;102411.53;5115272;28;20023;-49
2022/10/07 01:44:47;;;;;;;20.85;4.43;;;;;;;9.57;nan;102409.75;5097245;28;20031;-50
2022/10/07 01:47:12;;;;;;;13.55;3.85;;;;;;;9.52;nan;102390.50;5097080;28;20039;-49
2022/10/07 01:49:38;;;;;;;17.15;3.25;;;;;;;9.55;nan;102400.13;5115123;28;20027;-51
2022/10/07 01:52:39;;;;;;;20.65;4.60;;;;;;;9.52;nan;102405.38;5114966;28;20474;-53
2022/10/07 01:55:39;;;;;;;19.05;3.95;;;;;;;9.45;nan;102394.03;5115391;28;20019;-52
2022/10/07 01:58:44;;;;;;;21.63;4.10;;;;;;;9.49;nan;102384.38;5115217;28;20042;-56
2022/10/07 02:01:33;;;;;;;21.08;3.92;;;;;;;9.48;nan;102382.63;5096850;28;20024;-53
2022/10/07 02:04:24;;;;;;;18.10;3.55;;;;;;;9.49;nan;102371.22;5114531;28;20425;-50
2022/10/07 02:07:16;;;;;;;22.35;4.53;;;;;;;9.13;nan;102303.03;5114779;28;20432;-51
2022/10/07 02:09:50;;;;;;;25.20;4.90;;;;;;;9.50;nan;102365.97;5114377;28;20047;-49
2022/10/07 02:12:48;;;;;;;22.05;4.28;;;;;;;9.48;nan;102351.09;5114121;28;20023;-54
2022/10/07 02:15:35;;;;;;;20.90;4.90;;;;;;;9.53;nan;102349.31;5081240;28;20136;-48
2022/10/07 02:18:02;;;;;;;18.73;4.38;;;;;;;9.47;nan;102341.44;5096447;28;20043;-54
2022/10/07 02:20:30;;;;;;;15.70;3.70;;;;;;;9.51;nan;102351.09;5096213;28;20031;-51
2022/10/07 02:22:57;;;;;;;19.95;4.15;;;;;;;9.53;nan;102339.69;5096607;28;20077;-52
2022/10/07 02:25:24;;;;;;;22.70;4.60;;;;;;;9.30;nan;102295.97;5096274;28;20528;-48
2022/10/07 02:27:52;;;;;;;22.77;4.35;;;;;;;9.43;nan;102310.78;5114571;28;20038;-53
2022/10/07 02:30:18;;;;;;;21.25;5.00;;;;;;;9.66;nan;102331.75;5113816;28;20024;-52
2022/10/07 02:32:55;;;;;;;19.63;4.65;;;;;;;9.75;nan;102329.06;5096378;28;20036;-54
2022/10/07 02:35:28;;;;;;;14.25;4.15;;;;;;;9.78;nan;102319.38;5096001;28;20044;-55
2022/10/07 02:37:57;;;;;;;18.73;4.53;;;;;;;9.65;nan;102275.66;5096046;28;20110;-47
2022/10/07 02:40:25;;;;;;;16.27;3.88;;;;;;;9.61;nan;102258.13;5095879;28;20032;-52
2022/10/07 02:43:08;;;;;;;19.35;4.28;;;;;;;9.99;nan;102327.16;5096430;28;20382;-52
2022/10/07 02:45:55;;;;;;;19.92;3.72;;;;;;;10.03;nan;102315.72;5096050;28;20417;-49
2022/10/07 02:48:25;;;;;;;17.40;3.80;;;;;;;9.89;nan;102283.41;5113786;28;20061;-51
2022/10/07 02:50:54;;;;;;;23.30;4.38;;;;;;;9.82;nan;102275.53;5095475;28;20043;-50
2022/10/07 02:53:20;;;;;;;17.02;3.70;;;;;;;9.90;nan;102293.00;5095613;28;20031;-51
2022/10/07 02:55:47;;;;;;;23.63;4.72;;;;;;;9.39;nan;102209.22;5095692;28;20061;-55
2022/10/07 02:58:13;;;;;;;24.15;4.78;;;;;;;9.91;nan;102297.41;5078665;28;20027;-52
2022/10/07 03:00:42;;;;;;;18.42;3.72;;;;;;;9.89;nan;102283.41;5079131;28;20031;-50
2022/10/07 03:03:07;;;;;;;22.88;4.55;;;;;;;9.93;nan;102278.97;5113404;28;20107;-55
2022/10/07 03:05:33;;;;;;;23.38;4.78;;;;;;;9.96;nan;102299.97;5112300;28;20543;-52
2022/10/07 03:08:04;;;;;;;14.80;4.00;;;;;;;9.94;nan;102286.84;5113765;28;20063;-48
2022/10/07 03:10:29;;;;;;;17.52;4.80;;;;;;;10.01;nan;102290.31;5094844;28;20047;-52
2022/10/07 03:12:54;;;;;;;14.80;4.03;;;;;;;9.99;nan;102289.44;5113581;28;20042;-49
2022/10/07 03:15:24;;;;;;;19.95;4.00;;;;;;;9.94;nan;102280.72;5095469;28;20041;-55
2022/10/07 03:17:50;;;;;;;27.55;4.38;;;;;;;9.88;nan;102268.47;5095093;28;20035;-55
2022/10/07 03:20:15;;;;;;;14.93;4.03;;;;;;;9.73;nan;102233.50;5113565;28;20386;-52
2022/10/07 03:22:42;;;;;;;16.70;4.18;;;;;;;9.94;nan;102263.19;5113061;28;20032;-52
2022/10/07 03:25:08;;;;;;;17.50;4.57;;;;;;;9.93;nan;102281.59;5095456;28;20059;-47
2022/10/07 03:27:34;;;;;;;24.05;4.55;;;;;;;9.89;nan;102258.84;5113392;28;20539;-50
2022/10/07 03:30:00;;;;;;;21.63;5.47;;;;;;;9.73;nan;102226.50;5078266;28;20040;-55
2022/10/07 03:32:28;;;;;;;17.85;4.55;;;;;;;9.92;nan;102272.84;5113143;28;20398;-53
2022/10/07 03:34:54;;;;;;;19.15;5.30;;;;;;;9.89;nan;102272.88;5113224;28;20036;-52
2022/10/07 03:37:20;;;;;;;16.85;3.53;;;;;;;9.91;nan;102278.09;5113236;28;20071;-48
2022/10/07 03:39:46;;;;;;;18.20;5.22;;;;;;;9.88;nan;102271.13;5113123;28;20386;-55
2022/10/07 03:42:12;;;;;;;18.98;4.43;;;;;;;9.86;nan;102278.16;5112862;28;20031;-52
2022/10/07 03:44:37;;;;;;;26.75;5.28;;;;;;;9.75;nan;102237.88;5112954;28;20027;-49
2022/10/07 03:47:03;;;;;;;25.35;4.75;;;;;;;9.57;nan;102212.59;5095000;28;20086;-52
2022/10/07 03:49:29;;;;;;;16.45;4.18;;;;;;;9.57;nan;102217.84;5113144;28;20032;-52
2022/10/07 03:51:54;;;;;;;20.10;5.47;;;;;;;9.74;nan;102246.66;5094645;28;20081;-45
2022/10/07 03:54:20;;;;;;;27.73;5.65;;;;;;;9.63;nan;102230.94;5112933;28;20054;-50
2022/10/07 03:56:45;;;;;;;15.45;4.28;;;;;;;9.82;nan;102258.00;5112805;28;20038;-50
2022/10/07 03:59:11;;;;;;;18.08;5.13;;;;;;;9.81;nan;102252.75;5112640;28;20706;-50
2022/10/07 04:01:36;;;;;;;19.42;6.53;;;;;;;9.82;nan;102249.22;5113283;28;20287;-51
2022/10/07 04:04:02;;;;;;;15.10;4.93;;;;;;;9.84;nan;102253.59;5112731;28;20024;-50
2022/10/07 04:06:28;;;;;;;25.15;4.85;;;;;;;9.73;nan;102234.41;5094644;28;20130;-50
2022/10/07 04:08:54;;;;;;;17.60;4.88;;;;;;;9.56;nan;102202.97;5112769;28;20421;-49
2022/10/07 04:11:20;;;;;;;16.80;5.13;;;;;;;9.79;nan;102242.25;5094382;28;20054;-51
2022/10/07 04:13:46;;;;;;;20.70;4.40;;;;;;;9.83;nan;102245.72;5094458;28;20491;-53
2022/10/07 04:16:12;;;;;;;20.20;5.53;;;;;;;9.82;nan;102238.72;5112809;28;20040;-50
2022/10/07 04:18:40;;;;;;;17.00;4.93;;;;;;;9.86;nan;102227.31;5112691;28;20043;-51
2022/10/07 04:21:06;;;;;;;18.70;5.43;;;;;;;9.58;nan;102185.41;5112640;28;20031;-54
2022/10/07 04:23:31;;;;;;;17.80;4.80;;;;;;;9.89;nan;102230.78;5112639;28;20032;-53
2022/10/07 04:25:56;;;;;;;14.45;4.78;;;;;;;9.84;nan;102243.06;5112509;28;20527;-50
2022/10/07 04:28:24;;;;;;;17.17;5.78;;;;;;;9.64;nan;102200.28;5112303;28;20031;-50
2022/10/07 04:30:50;;;;;;;12.32;4.13;;;;;;;9.63;nan;102194.13;5112614;28;20042;-47
2022/10/07 04:33:17;;;;;;;25.52;4.80;;;;;;;9.65;nan;102193.25;5095678;28;20027;-50
2022/10/07 04:35:43;;;;;;;16.67;4.82;;;;;;;9.61;nan;102190.66;5116627;28;20036;-56
2022/10/07 04:38:12;;;;;;;22.52;5.85;;;;;;;9.88;nan;102230.78;5098557;28;20551;-53
2022/10/07 04:40:39;;;;;;;16.70;4.68;;;;;;;9.59;nan;102181.03;5098414;28;20038;-51
2022/10/07 04:43:22;;;;;;;23.33;4.90;;;;;;;9.68;nan;102203.75;5098173;28;20051;-50
2022/10/07 04:45:52;;;;;;;22.55;5.82;;;;;;;9.91;nan;102223.75;5116651;28;20036;-55
2022/10/07 04:48:19;;;;;;;17.17;5.85;;;;;;;9.95;nan;102229.88;5116542;28;20375;-52
2022/10/07 04:50:45;;;;;;;21.30;5.47;;;;;;;9.66;nan;102174.00;5116181;28;20036;-50
2022/10/07 04:53:15;;;;;;;28.23;5.43;;;;;;;9.90;nan;102216.72;5116122;28;20490;-50
2022/10/07 04:55:43;;;;;;;19.65;5.68;;;;;;;9.65;nan;102172.22;5116184;28;20031;-47
2022/10/07 04:58:08;;;;;;;23.13;5.35;;;;;;;9.54;nan;102159.19;5097748;28;20032;-49
2022/10/07 05:00:34;;;;;;;20.73;5.57;;;;;;;9.82;nan;102218.56;5098052;28;20082;-50
2022/10/07 05:03:00;;;;;;;21.95;6.03;;;;;;;9.81;nan;102216.78;5097729;28;20111;-49
2022/10/07 05:05:26;;;;;;;15.65;6.47;;;;;;;9.83;nan;102214.19;5116078;28;20043;-50
2022/10/07 05:07:53;;;;;;;16.75;4.68;;;;;;;9.76;nan;102202.81;5097908;28;20047;-51
2022/10/07 05:10:19;;;;;;;17.60;4.97;;;;;;;9.69;nan;102206.38;5115769;28;20318;-51
2022/10/07 05:12:44;;;;;;;12.57;4.05;;;;;;;9.76;nan;102209.84;5097566;28;20042;-50
2022/10/07 05:15:10;;;;;;;13.00;4.18;;;;;;;9.41;nan;102161.00;5115903;28;20036;-49
2022/10/07 05:17:35;;;;;;;17.63;4.72;;;;;;;9.66;nan;102195.88;5115871;28;20032;-51
2022/10/07 05:20:03;;;;;;;15.50;4.78;;;;;;;9.70;nan;102192.34;5097626;28;20028;-46
2022/10/07 05:22:30;;;;;;;15.90;4.50;;;;;;;8.77;nan;102036.22;5097642;28;20035;-53
2022/10/07 05:24:55;;;;;;;22.80;4.90;;;;;;;9.72;nan;102202.88;5115556;28;20050;-53
2022/10/07 05:27:21;;;;;;;20.08;5.10;;;;;;;9.60;nan;102186.28;5115836;28;20031;-48
2022/10/07 05:29:46;;;;;;;18.30;3.78;;;;;;;9.68;nan;102194.13;5115780;28;20058;-53
2022/10/07 05:32:12;;;;;;;20.17;4.60;;;;;;;9.69;nan;102192.38;5115612;28;20031;-55
2022/10/07 05:34:37;;;;;;;20.25;4.45;;;;;;;9.37;nan;102140.88;5115414;28;20039;-51
2022/10/07 05:37:03;;;;;;;19.45;4.90;;;;;;;9.32;nan;102141.78;5115543;28;20046;-49
2022/10/07 05:39:28;;;;;;;15.30;4.28;;;;;;;9.59;nan;102181.91;5114157;28;20084;-48
2022/10/07 05:41:54;;;;;;;15.77;4.40;;;;;;;9.46;nan;102145.19;5115389;28;20121;-49
2022/10/07 05:44:19;;;;;;;21.20;4.72;;;;;;;9.67;nan;102196.75;5115058;28;20038;-53
2022/10/07 05:46:44;;;;;;;20.17;4.75;;;;;;;9.49;nan;102134.66;5114734;28;20360;-53
2022/10/07 05:49:10;;;;;;;12.80;4.78;;;;;;;9.71;nan;102180.97;5115350;28;20063;-48
2022/10/07 05:51:36;;;;;;;18.33;4.80;;;;;;;9.69;nan;102176.59;5096782;28;20036;-51
2022/10/07 05:54:01;;;;;;;16.83;4.72;;;;;;;9.69;nan;102176.59;5115120;28;20051;-48
2022/10/07 05:56:26;;;;;;;15.75;4.43;;;;;;;9.72;nan;102182.69;5115308;28;20535;-49
2022/10/07 05:58:52;;;;;;;13.95;4.90;;;;;;;9.49;nan;102134.66;5114863;28;20028;-53
2022/10/07 06:01:22;;;;;;;18.75;4.82;;;;;;;9.47;nan;102133.81;5096555;28;20031;-48
2022/10/07 06:03:49;;;;;;;17.60;5.50;;;;;;;9.73;nan;102165.16;5114481;28;20039;-50
2022/10/07 06:06:14;;;;;;;15.57;4.63;;;;;;;9.67;nan;102160.81;5114861;28;20027;-51
2022/10/07 06:08:39;;;;;;;16.73;4.47;;;;;;;9.49;nan;102127.66;5096582;28;20363;-51
2022/10/07 06:13:50;;;;;;;14.05;4.35;;;;;;;9.87;nan;102168.53;5099617;28;20089;-51
2022/10/07 06:16:16;;;;;;;18.83;4.05;;;;;;;9.59;nan;102112.69;5114756;28;20032;-48
2022/10/07 06:18:41;;;;;;;11.65;4.35;;;;;;;9.96;nan;102182.50;5114646;28;20497;-51
2022/10/07 06:21:06;;;;;;;18.23;4.13;;;;;;;10.08;nan;102173.63;5114401;28;20110;-51
2022/10/07 06:23:32;;;;;;;15.73;4.18;;;;;;;10.10;nan;102179.72;5113443;28;20475;-54
2022/10/07 06:26:05;;;;;;;19.85;4.53;;;;;;;10.09;nan;102167.47;5114333;28;20547;-51
2022/10/07 06:28:38;;;;;;;13.70;4.45;;;;;;;10.15;nan;102170.97;5114289;28;20114;-52
2022/10/07 06:31:14;;;;;;;15.23;4.25;;;;;;;9.91;nan;102122.94;5113921;28;20119;-53
2022/10/07 06:33:40;;;;;;;15.55;4.85;;;;;;;10.21;nan;102163.91;5078722;28;20445;-49
2022/10/07 06:36:09;;;;;;;18.67;4.28;;;;;;;9.96;nan;102124.63;5114219;28;20080;-50
2022/10/07 06:38:34;;;;;;;17.27;4.63;;;;;;;10.27;nan;102164.72;5095295;28;20042;-54
2022/10/07 06:41:00;;;;;;;21.55;4.35;;;;;;;10.28;nan;102169.06;5095673;28;20122;-55
2022/10/07 06:43:27;;;;;;;17.80;4.40;;;;;;;10.33;nan;102166.41;5113792;28;20036;-52
2022/10/07 06:45:57;;;;;;;16.55;4.05;;;;;;;10.35;nan;102165.50;5113435;28;20501;-53
2022/10/07 06:48:23;;;;;;;17.75;4.38;;;;;;;10.48;nan;102169.72;5113756;28;20024;-51
2022/10/07 06:50:52;;;;;;;12.05;3.35;;;;;;;10.55;nan;102171.41;5113970;28;20123;-52
2022/10/07 06:53:18;;;;;;;16.98;4.10;;;;;;;10.65;nan;102172.19;5100530;28;20115;-55
2022/10/07 06:55:44;;;;;;;16.88;4.20;;;;;;;10.50;nan;102130.25;5113592;28;20189;-52
2022/10/07 06:58:09;;;;;;;21.23;5.28;;;;;;;10.82;nan;102175.50;5106098;28;20036;-54
2022/10/07 07:00:35;;;;;;;14.75;4.35;;;;;;;10.85;nan;102166.69;5093597;28;20077;-52
2022/10/07 07:03:00;;;;;;;18.08;5.35;;;;;;;10.89;nan;102178.91;5074874;28;20048;-55
2022/10/07 07:05:37;;;;;;;20.52;4.13;;;;;;;11.02;nan;102180.50;5100923;28;20044;-54
2022/10/07 07:08:02;;;;;;;18.58;4.80;;;;;;;11.16;nan;102181.19;5096621;28;20055;-55
2022/10/07 07:10:28;;;;;;;19.67;4.70;;;;;;;11.26;nan;102188.09;5108821;28;20083;-53
2022/10/07 07:12:54;;;;;;;12.85;4.13;;;;;;;11.13;nan;102139.06;5091674;28;20028;-49
2022/10/07 07:15:20;;;;;;;12.73;3.72;;;;;;;11.23;nan;102141.56;5092901;28;20493;-53
2022/10/07 07:17:46;;;;;;;18.92;4.65;;;;;;;11.29;nan;102123.00;5093088;28;20036;-53
2022/10/07 07:20:13;;;;;;;13.45;3.83;;;;;;;11.44;nan;102142.97;5092709;28;20056;-54
2022/10/07 07:22:38;;;;;;;15.15;4.18;;;;;;;11.75;nan;102175.94;5092175;28;20050;-51
2022/10/07 07:25:04;;;;;;;17.75;3.75;;;;;;;11.78;nan;102162.72;5092961;28;20032;-48
2022/10/07 07:27:29;;;;;;;21.02;4.53;;;;;;;11.70;nan;102129.44;5091412;28;20549;-49
2022/10/07 07:29:56;;;;;;;14.70;4.03;;;;;;;11.80;nan;102139.81;5091863;28;20031;-52
2022/10/07 07:32:21;;;;;;;16.70;4.10;;;;;;;12.12;nan;102175.31;5092709;28;20067;-52
2022/10/07 07:34:47;;;;;;;16.08;5.13;;;;;;;12.17;nan;102173.50;5092741;28;20462;-49
2022/10/07 07:37:12;;;;;;;16.98;4.25;;;;;;;12.03;nan;102122.69;5092872;28;20051;-54
2022/10/07 07:39:38;;;;;;;11.80;3.60;;;;;;;12.48;nan;102187.88;5092604;28;20036;-55
2022/10/07 07:42:03;;;;;;;9.90;3.25;;;;;;;12.41;nan;102134.28;5092516;28;20391;-53
2022/10/07 07:44:29;;;;;;;14.77;3.75;;;;;;;12.46;nan;102114.84;5092530;28;20032;-51
2022/10/07 07:46:55;;;;;;;13.00;4.28;;;;;;;13.02;nan;102154.16;5092484;28;20067;-52
2022/10/07 07:49:21;;;;;;;12.30;3.47;;;;;;;13.20;nan;102132.66;5092498;28;20036;-60
2022/10/07 07:51:47;;;;;;;15.05;3.75;;;;;;;13.61;nan;102170.47;5074464;28;20474;-54
2022/10/07 07:54:13;;;;;;;11.10;3.97;;;;;;;13.90;nan;102183.88;5092032;28;20036;-52
2022/10/07 07:56:38;;;;;;;15.90;3.95;;;;;;;13.99;nan;102187.16;5092262;28;20036;-52
2022/10/07 07:59:05;;;;;;;15.93;4.35;;;;;;;14.18;nan;102187.59;5092080;28;20099;-51
2022/10/07 08:01:31;;;;;;;13.68;3.95;;;;;;;14.31;nan;102180.16;5074338;28;20032;-53
2022/10/07 08:03:56;;;;;;;12.23;4.85;;;;;;;14.49;nan;102190.31;5074071;28;20050;-53
2022/10/07 08:06:22;;;;;;;14.10;3.70;;;;;;;14.74;nan;102187.88;5092269;28;20050;-52
2022/10/07 08:08:47;;;;;;;13.27;3.40;;;;;;;14.89;nan;102171.50;5091929;28;20046;-52
2022/10/07 08:11:15;;;;;;;14.30;3.55;;;;;;;14.82;nan;102144.31;5090922;28;20052;-53
2022/10/07 08:13:41;;;;;;;13.38;3.85;;;;;;;14.90;nan;102160.00;5091831;28;20028;-51
2022/10/07 08:16:07;;;;;;;19.23;4.40;;;;;;;15.09;nan;102188.56;5073701;28;20043;-55
2022/10/07 08:18:33;;;;;;;13.52;3.65;;;;;;;15.14;nan;102188.44;5072891;28;20023;-54
2022/10/07 08:21:01;;;;;;;14.00;4.20;;;;;;;14.94;nan;102180.22;5091102;28;20036;-51
2022/10/07 08:23:29;;;;;;;12.05;3.22;;;;;;;14.88;nan;102194.50;5091738;28;20059;-51
2022/10/07 08:25:55;;;;;;;14.68;3.15;;;;;;;14.69;nan;102190.63;5091580;28;20036;-52
2022/10/07 08:28:21;;;;;;;13.30;3.20;;;;;;;14.42;nan;102143.69;5091720;28;20039;-55
2022/10/07 08:30:46;;;;;;;13.25;3.47;;;;;;;14.66;nan;102172.16;5090261;28;20434;-55
2022/10/07 08:33:11;;;;;;;17.27;3.90;;;;;;;14.43;nan;102118.94;5072786;28;20039;-50
2022/10/07 08:35:36;;;;;;;10.40;2.92;;;;;;;14.71;nan;102183.50;5091655;28;20128;-54
2022/10/07 08:38:02;;;;;;;13.80;3.33;;;;;;;14.58;nan;102172.38;5072251;28;20064;-54
2022/10/07 08:40:27;;;;;;;14.52;3.22;;;;;;;14.56;nan;102162.75;5071779;28;20464;-53
2022/10/07 08:42:53;;;;;;;11.90;2.97;;;;;;;14.61;nan;102164.34;5090618;28;20464;-54
2022/10/07 08:45:30;;;;;;;14.90;3.45;;;;;;;14.62;nan;102159.94;5073177;28;20452;-50
2022/10/07 08:47:57;;;;;;;12.15;2.90;;;;;;;14.55;nan;102153.94;5072790;28;20103;-56
2022/10/07 08:50:35;;;;;;;13.77;3.58;;;;;;;14.67;nan;102158.00;5072886;28;20035;-56
2022/10/07 08:53:03;;;;;;;15.90;3.13;;;;;;;14.48;nan;102098.47;5090740;28;20028;-54
2022/10/07 08:55:50;;;;;;;14.93;3.70;;;;;;;14.75;nan;102137.44;5091259;28;20088;-50
2022/10/07 08:58:30;;;;;;;10.52;3.15;;;;;;;14.77;nan;102148.88;5090384;28;20101;-56
2022/10/07 09:01:02;;;;;;;14.15;3.63;;;;;;;14.81;nan;102152.31;5090808;28;20040;-54
2022/10/07 09:03:40;;;;;;;11.70;2.92;;;;;;;14.79;nan;102162.97;5090734;28;20032;-52
2022/10/07 09:06:16;;;;;;;13.40;3.53;;;;;;;14.52;nan;102111.63;5090849;28;20503;-51
2022/10/07 09:08:44;;;;;;;12.32;3.00;;;;;;;14.62;nan;102109.59;5072699;28;20028;-49
2022/10/07 09:11:15;;;;;;;12.80;3.42;;;;;;;14.80;nan;102140.81;5090562;28;20105;-53
2022/10/07 09:13:51;;;;;;;12.63;3.10;;;;;;;14.92;nan;102129.88;5090928;28;20383;-59
2022/10/07 09:16:22;;;;;;;13.25;3.22;;;;;;;15.03;nan;102111.00;5055911;28;20042;-53
2022/10/07 09:18:49;;;;;;;;;;;;;;;15.70;nan;102145.09;5073227;28;20115;-53
2022/10/07 09:21:40;;;;;;;17.75;3.20;;;;;;;16.31;nan;102157.16;5094910;28;19916;-52
2022/10/07 09:24:16;;;;;;;8.37;3.03;;;;;;;16.94;nan;102118.53;5076570;28;20032;-59
2022/10/07 09:26:42;;;;;;;10.02;3.10;;;;;;;17.52;nan;102178.31;5059804;28;20400;-55
2022/10/07 09:29:08;;;;;;;12.38;2.75;;;;;;;17.51;nan;102155.28;5093586;28;20463;-53
2022/10/07 09:31:34;;;;;;;10.40;3.42;;;;;;;17.41;nan;102167.22;5075802;28;20085;-54
2022/10/07 09:33:59;;;;;;;14.68;3.35;;;;;;;16.94;nan;102134.47;5093968;28;20032;-59
2022/10/07 09:36:25;;;;;;;10.55;3.72;;;;;;;16.84;nan;102122.47;5075176;28;20028;-52
2022/10/07 09:38:51;;;;;;;10.68;3.00;;;;;;;16.72;nan;102141.56;5094005;28;20040;-51
2022/10/07 09:41:18;;;;;;;10.95;3.10;;;;;;;16.87;nan;102155.13;5075765;28;20036;-53
2022/10/07 09:44:14;;;;;;;16.33;3.22;;;;;;;16.86;nan;102153.41;5094627;28;20047;-52
2022/10/07 09:46:48;;;;;;;9.57;2.83;;;;;;;16.69;nan;102137.22;5074586;28;20104;-54
2022/10/07 09:49:28;;;;;;;10.88;2.72;;;;;;;16.75;nan;102154.72;5093389;28;20026;-56
2022/10/07 09:52:00;;;;;;;11.83;3.47;;;;;;;16.63;nan;102100.22;5094164;28;20127;-57
2022/10/07 09:54:26;;;;;;;10.13;3.20;;;;;;;16.79;nan;102108.47;5093813;28;20107;-54
2022/10/07 09:56:57;;;;;;;9.13;2.85;;;;;;;17.12;nan;102130.25;5075460;28;20633;-54
2022/10/07 09:59:28;;;;;;;11.48;3.70;;;;;;;17.01;nan;102130.69;5059017;28;20032;-54
2022/10/07 10:02:21;;;;;;;12.48;3.00;;;;;;;17.07;nan;102122.47;5093742;28;20042;-55
2022/10/07 10:04:54;;;;;;;13.10;3.20;;;;;;;16.79;nan;102082.75;5073677;28;20050;-52
2022/10/07 10:07:30;;;;;;;12.80;3.03;;;;;;;17.17;nan;102130.94;5075695;28;20036;-58
2022/10/07 10:09:57;;;;;;;13.13;3.80;;;;;;;17.21;nan;102127.22;5075737;28;20075;-51
2022/10/07 10:12:23;;;;;;;16.60;3.38;;;;;;;17.04;nan;102119.91;5075320;28;20495;-57
2022/10/07 10:14:54;;;;;;;13.23;3.35;;;;;;;16.96;nan;102113.16;5075757;28;20055;-54
2022/10/07 10:17:55;;;;;;;12.43;3.50;;;;;;;16.80;nan;102108.44;5093571;28;20036;-56
2022/10/07 10:20:38;;;;;;;12.45;3.40;;;;;;;16.46;nan;102060.06;5081616;28;20441;-55
2022/10/07 10:23:25;;;;;;;11.70;2.85;;;;;;;16.49;nan;102099.81;5075043;28;20035;-54
2022/10/07 10:26:28;;;;;;;10.35;2.63;;;;;;;16.58;nan;102086.22;5093613;28;20036;-49
2022/10/07 10:29:15;;;;;;;11.07;2.10;;;;;;;16.79;nan;102097.84;5092887;28;20036;-54
2022/10/07 10:31:59;;;;;;;12.10;2.78;;;;;;;16.90;nan;102092.13;5092894;28;20036;-55
2022/10/07 10:34:39;;;;;;;12.50;2.45;;;;;;;17.03;nan;102088.03;5093210;28;20043;-57
2022/10/07 10:37:13;;;;;;;8.57;2.38;;;;;;;16.68;nan;102053.06;5092512;28;20085;-51
2022/10/07 10:40:02;;;;;;;10.35;3.13;;;;;;;16.73;nan;102088.28;5074337;28;20035;-55
2022/10/07 10:42:50;;;;;;;13.23;3.53;;;;;;;16.84;nan;102091.41;5074234;28;20494;-57
2022/10/07 10:45:30;;;;;;;13.27;3.00;;;;;;;17.02;nan;102080.97;5074320;28;20178;-52
2022/10/07 10:48:00;;;;;;;11.00;2.85;;;;;;;17.24;nan;102085.41;5092404;28;20036;-56
2022/10/07 10:50:36;;;;;;;11.68;3.15;;;;;;;17.18;nan;102043.06;5074058;28;20441;-56
2022/10/07 10:53:23;;;;;;;11.80;3.35;;;;;;;17.37;nan;102046.69;5057140;28;20044;-56
2022/10/07 10:56:01;;;;;;;12.05;2.90;;;;;;;17.67;nan;102073.00;5073556;28;20028;-57
2022/10/07 10:59:02;;;;;;;12.10;3.63;;;;;;;17.85;nan;102067.78;5091864;28;20040;-54
2022/10/07 11:01:36;;;;;;;9.45;2.60;;;;;;;17.95;nan;102076.22;5079918;28;20117;-55
2022/10/07 11:04:13;;;;;;;11.77;2.78;;;;;;;17.92;nan;102071.88;5073516;28;20066;-53
2022/10/07 11:06:41;;;;;;;10.13;2.92;;;;;;;17.91;nan;102066.63;5091689;28;20075;-51
2022/10/07 11:09:14;;;;;;;11.77;2.88;;;;;;;17.74;nan;102061.19;5091565;28;20078;-53
2022/10/07 11:11:41;;;;;;;12.63;3.08;;;;;;;17.63;nan;102058.94;5073615;28;20039;-55
2022/10/07 11:14:16;;;;;;;14.40;3.45;;;;;;;17.68;nan;102049.00;5056920;28;20038;-53
2022/10/07 11:17:03;;;;;;;10.70;2.63;;;;;;;17.49;nan;102063.97;5074054;28;20036;-55
2022/10/07 11:19:36;;;;;;;11.05;2.25;;;;;;;17.43;nan;102054.44;5092913;28;20452;-52
2022/10/07 11:22:01;;;;;;;13.40;2.90;;;;;;;16.95;nan;102035.16;5092725;28;20035;-51
2022/10/07 11:24:36;;;;;;;8.55;2.70;;;;;;;16.96;nan;102059.97;5058051;28;20506;-55
2022/10/07 11:27:25;;;;;;;11.73;2.90;;;;;;;16.81;nan;102051.63;5074181;28;20036;-52
2022/10/07 11:30:07;;;;;;;10.70;2.72;;;;;;;16.73;nan;102039.56;5075003;28;20032;-54
2022/10/07 11:32:41;;;;;;;11.20;2.53;;;;;;;16.73;nan;102034.25;5074776;28;20489;-54
2022/10/07 11:35:20;;;;;;;10.20;2.53;;;;;;;16.48;nan;101994.44;5092994;28;20088;-57
2022/10/07 11:37:59;;;;;;;10.25;3.15;;;;;;;16.53;nan;101999.56;5074472;28;20032;-55
2022/10/07 11:40:27;;;;;;;11.38;2.90;;;;;;;16.30;nan;101977.41;5092837;28;20035;-55
2022/10/07 11:42:56;;;;;;;7.60;2.30;;;;;;;16.46;nan;101996.28;5074026;28;20066;-54
2022/10/07 11:45:28;;;;;;;11.48;2.90;;;;;;;16.70;nan;102013.09;5074610;28;20363;-55
2022/10/07 11:48:07;;;;;;;8.88;2.97;;;;;;;16.65;nan;101991.16;5074395;28;20375;-56
2022/10/07 11:50:38;;;;;;;8.85;2.40;;;;;;;16.82;nan;102007.31;5092003;28;20028;-57
2022/10/07 11:53:06;;;;;;;9.13;2.53;;;;;;;16.79;nan;101948.94;5092274;28;20063;-56
2022/10/07 11:56:19;;;;;;;13.10;2.60;;;;;;;17.23;nan;101997.63;5091082;28;20028;-58
2022/10/07 11:58:45;;;;;;;10.30;3.33;;;;;;;17.95;nan;101988.28;5081090;28;20127;-53